createdAt,value
2017-06-03T00:01:05.138Z,939.25
2017-06-03T00:02:17.578Z,939.19
2017-06-03T00:03:30.490Z,939.26
2017-06-03T00:04:43.401Z,939.21
2017-06-03T00:05:55.823Z,939.22
2017-06-03T00:07:08.445Z,939.21
2017-06-03T00:08:21.358Z,939.19
2017-06-03T00:09:34.268Z,939.22
2017-06-03T00:10:46.688Z,939.21
2017-06-03T00:11:59.605Z,939.21
2017-06-03T00:13:12.045Z,939.26
2017-06-03T00:14:23.979Z,939.24
2017-06-03T00:15:36.400Z,939.21
2017-06-03T00:16:49.314Z,939.22
2017-06-03T00:18:02.233Z,939.24
2017-06-03T00:19:15.150Z,939.26
2017-06-03T00:20:28.063Z,939.26
2017-06-03T00:21:40.976Z,939.27
2017-06-03T00:22:53.891Z,939.32
2017-06-03T00:24:06.806Z,939.34
2017-06-03T00:25:19.717Z,939.3
2017-06-03T00:26:32.144Z,939.3
2017-06-03T00:27:45.064Z,939.35
2017-06-03T00:28:57.486Z,939.31
2017-06-03T00:30:10.396Z,939.32
2017-06-03T00:31:23.309Z,939.3
2017-06-03T00:32:36.222Z,939.34
2017-06-03T00:33:49.138Z,939.32
2017-06-03T00:35:02.054Z,939.32
2017-06-03T00:36:14.976Z,939.36
2017-06-03T00:37:27.894Z,939.31
2017-06-03T00:38:40.807Z,939.35
2017-06-03T00:39:53.922Z,939.35
2017-06-03T00:41:06.340Z,939.36
2017-06-03T00:42:19.257Z,939.32
2017-06-03T00:43:31.678Z,939.33
2017-06-03T00:44:44.098Z,939.34
2017-06-03T00:45:56.719Z,939.33
2017-06-03T00:47:09.141Z,939.33
2017-06-03T00:48:22.058Z,939.36
2017-06-03T00:49:34.975Z,939.36
2017-06-03T00:50:47.891Z,939.32
2017-06-03T00:52:00.817Z,939.35
2017-06-03T00:53:13.733Z,939.39
2017-06-03T00:54:26.161Z,939.36
2017-06-03T00:55:39.076Z,939.36
2017-06-03T00:56:51.988Z,939.38
2017-06-03T00:58:04.903Z,939.39
2017-06-03T00:59:17.829Z,939.38
2017-06-03T01:00:30.744Z,939.44
2017-06-03T01:01:43.661Z,939.45
2017-06-03T01:02:56.577Z,939.48
2017-06-03T01:04:09.495Z,939.46
2017-06-03T01:05:22.410Z,939.49
2017-06-03T01:06:35.328Z,939.51
2017-06-03T01:07:48.242Z,939.54
2017-06-03T01:09:01.153Z,939.51
2017-06-03T01:10:14.073Z,939.54
2017-06-03T01:11:26.987Z,939.47
2017-06-03T01:12:39.900Z,939.46
2017-06-03T01:13:52.816Z,939.46
2017-06-03T01:15:05.731Z,939.49
2017-06-03T01:16:18.155Z,939.51
2017-06-03T01:17:30.582Z,939.49
2017-06-03T01:18:43.680Z,939.51
2017-06-03T01:19:56.464Z,939.54
2017-06-03T01:21:09.239Z,939.53
2017-06-03T01:22:21.537Z,939.56
2017-06-03T01:23:33.349Z,939.57
2017-06-03T01:24:46.122Z,939.57
2017-06-03T01:25:58.415Z,939.56
2017-06-03T01:27:11.195Z,939.58
2017-06-03T01:28:23.493Z,939.6
2017-06-03T01:29:35.990Z,939.6
2017-06-03T01:30:48.773Z,939.59
2017-06-03T01:32:01.552Z,939.54
2017-06-03T01:33:13.848Z,939.59
2017-06-03T01:34:26.143Z,939.56
2017-06-03T01:35:38.924Z,939.54
2017-06-03T01:36:51.705Z,939.56
2017-06-03T01:38:04.484Z,939.54
2017-06-03T01:39:16.797Z,939.52
2017-06-03T01:40:29.825Z,939.53
2017-06-03T01:41:42.604Z,939.56
2017-06-03T01:42:55.378Z,939.53
2017-06-03T01:44:08.169Z,939.52
2017-06-03T01:45:20.966Z,939.46
2017-06-03T01:46:33.263Z,939.52
2017-06-03T01:47:46.038Z,939.49
2017-06-03T01:48:58.814Z,939.51
2017-06-03T01:50:11.603Z,939.51
2017-06-03T01:51:24.580Z,939.52
2017-06-03T01:52:36.400Z,939.51
2017-06-03T01:53:48.718Z,939.5
2017-06-03T01:55:01.495Z,939.45
2017-06-03T01:56:14.270Z,939.47
2017-06-03T01:57:27.047Z,939.41
2017-06-03T01:58:39.826Z,939.44
2017-06-03T01:59:52.599Z,939.43
2017-06-03T02:01:05.376Z,939.38
2017-06-03T02:02:18.355Z,939.34
2017-06-03T02:03:31.152Z,939.37
2017-06-03T02:04:44.070Z,939.37
2017-06-03T02:05:56.988Z,939.36
2017-06-03T02:07:09.912Z,939.33
2017-06-03T02:08:22.826Z,939.34
2017-06-03T02:09:35.759Z,939.31
2017-06-03T02:10:48.210Z,939.3
2017-06-03T02:12:01.124Z,939.23
2017-06-03T02:13:14.042Z,939.24
2017-06-03T02:14:26.960Z,939.21
2017-06-03T02:15:39.874Z,939.27
2017-06-03T02:16:52.790Z,939.18
2017-06-03T02:18:05.932Z,939.2
2017-06-03T02:19:18.854Z,939.19
2017-06-03T02:20:31.768Z,939.18
2017-06-03T02:21:44.679Z,939.17
2017-06-03T02:22:57.591Z,939.21
2017-06-03T02:24:10.703Z,939.16
2017-06-03T02:25:23.613Z,939.2
2017-06-03T02:26:36.528Z,939.19
2017-06-03T02:27:49.441Z,939.21
2017-06-03T02:29:01.864Z,939.19
2017-06-03T02:30:14.783Z,939.18
2017-06-03T02:31:27.696Z,939.13
2017-06-03T02:32:40.613Z,939.14
2017-06-03T02:33:53.037Z,939.11
2017-06-03T02:35:05.953Z,939.09
2017-06-03T02:36:18.376Z,939.1
2017-06-03T02:37:31.290Z,939.12
2017-06-03T02:38:44.205Z,939.11
2017-06-03T02:39:57.118Z,939.08
2017-06-03T02:41:10.036Z,939.1
2017-06-03T02:42:22.467Z,939.1
2017-06-03T02:43:35.382Z,939.19
2017-06-03T02:44:47.819Z,939.16
2017-06-03T02:46:00.934Z,939.2
2017-06-03T02:47:13.849Z,939.25
2017-06-03T02:48:26.253Z,939.24
2017-06-03T02:49:38.552Z,939.24
2017-06-03T02:50:51.050Z,939.22
2017-06-03T02:52:03.830Z,939.21
2017-06-03T02:53:16.608Z,939.24
2017-06-03T02:54:29.388Z,939.26
2017-06-03T02:55:41.689Z,939.23
2017-06-03T02:56:54.470Z,939.24
2017-06-03T02:58:06.764Z,939.25
2017-06-03T02:59:19.549Z,939.29
2017-06-03T03:00:32.331Z,939.24
2017-06-03T03:01:45.140Z,939.28
2017-06-03T03:02:58.279Z,939.3
2017-06-03T03:04:11.055Z,939.3
2017-06-03T03:05:23.360Z,939.33
2017-06-03T03:06:36.142Z,939.32
2017-06-03T03:07:48.917Z,939.29
2017-06-03T03:09:01.211Z,939.3
2017-06-03T03:10:13.988Z,939.29
2017-06-03T03:11:26.294Z,939.28
2017-06-03T03:12:38.792Z,939.27
2017-06-03T03:13:51.570Z,939.26
2017-06-03T03:15:04.355Z,939.24
2017-06-03T03:16:17.134Z,939.21
2017-06-03T03:17:29.437Z,939.16
2017-06-03T03:18:42.227Z,939.14
2017-06-03T03:19:55.010Z,939.11
2017-06-03T03:21:07.800Z,939.09
2017-06-03T03:22:20.589Z,939.1
2017-06-03T03:23:33.365Z,939.08
2017-06-03T03:24:46.139Z,939.09
2017-06-03T03:25:58.918Z,939.06
2017-06-03T03:27:11.700Z,939.11
2017-06-03T03:28:24.478Z,939.07
2017-06-03T03:29:37.258Z,939.06
2017-06-03T03:30:50.042Z,939.05
2017-06-03T03:32:02.822Z,939.01
2017-06-03T03:33:15.610Z,939.04
2017-06-03T03:34:28.111Z,939.01
2017-06-03T03:35:40.887Z,939.02
2017-06-03T03:36:53.675Z,939
2017-06-03T03:38:06.455Z,939
2017-06-03T03:39:19.231Z,939.02
2017-06-03T03:40:32.013Z,939.03
2017-06-03T03:41:44.800Z,938.96
2017-06-03T03:42:57.578Z,938.98
2017-06-03T03:44:09.875Z,939.03
2017-06-03T03:45:22.383Z,939
2017-06-03T03:46:35.170Z,939.01
2017-06-03T03:47:47.958Z,938.97
2017-06-03T03:49:00.738Z,938.97
2017-06-03T03:50:13.514Z,939.02
2017-06-03T03:51:26.490Z,939.01
2017-06-03T03:52:38.791Z,939.01
2017-06-03T03:53:51.566Z,939.03
2017-06-03T03:55:04.351Z,939
2017-06-03T03:56:17.130Z,939.02
2017-06-03T03:57:29.925Z,939.04
2017-06-03T03:58:42.701Z,938.98
2017-06-03T03:59:54.997Z,939.01
2017-06-03T04:01:07.784Z,938.99
2017-06-03T04:02:20.577Z,938.98
2017-06-03T04:03:32.403Z,938.95
2017-06-03T04:04:45.201Z,938.96
2017-06-03T04:05:57.259Z,938.95
2017-06-03T04:07:10.266Z,938.95
2017-06-03T04:08:23.059Z,938.91
2017-06-03T04:09:35.403Z,938.93
2017-06-03T04:10:48.285Z,938.93
2017-06-03T04:12:01.244Z,938.92
2017-06-03T04:13:14.268Z,938.97
2017-06-03T04:14:27.096Z,938.95
2017-06-03T04:15:39.394Z,938.97
2017-06-03T04:16:52.183Z,938.97
2017-06-03T04:18:05.167Z,938.99
2017-06-03T04:19:18.016Z,938.99
2017-06-03T04:20:30.923Z,938.99
2017-06-03T04:21:43.341Z,938.97
2017-06-03T04:22:56.254Z,938.99
2017-06-03T04:24:09.163Z,938.97
2017-06-03T04:25:21.101Z,938.98
2017-06-03T04:26:34.014Z,938.99
2017-06-03T04:27:46.924Z,938.98
2017-06-03T04:28:59.555Z,939
2017-06-03T04:30:12.002Z,939
2017-06-03T04:31:23.934Z,938.95
2017-06-03T04:32:36.845Z,938.96
2017-06-03T04:33:49.756Z,938.94
2017-06-03T04:35:02.867Z,938.93
2017-06-03T04:36:15.780Z,938.91
2017-06-03T04:37:28.697Z,938.9
2017-06-03T04:38:41.607Z,938.94
2017-06-03T04:39:54.228Z,938.96
2017-06-03T04:41:06.650Z,938.92
2017-06-03T04:42:19.573Z,938.92
2017-06-03T04:43:32.488Z,938.89
2017-06-03T04:44:45.400Z,938.92
2017-06-03T04:45:58.331Z,938.9
2017-06-03T04:47:11.247Z,938.92
2017-06-03T04:48:24.168Z,938.88
2017-06-03T04:49:36.595Z,938.89
2017-06-03T04:50:49.220Z,938.86
2017-06-03T04:52:02.155Z,938.88
2017-06-03T04:53:15.070Z,938.9
2017-06-03T04:54:27.986Z,938.85
2017-06-03T04:55:40.929Z,938.85
2017-06-03T04:56:53.846Z,938.84
2017-06-03T04:58:06.785Z,938.8
2017-06-03T04:59:19.703Z,938.79
2017-06-03T05:00:32.615Z,938.78
2017-06-03T05:01:45.235Z,938.74
2017-06-03T05:02:58.150Z,938.74
2017-06-03T05:04:10.992Z,938.72
2017-06-03T05:05:23.767Z,938.73
2017-06-03T05:06:36.541Z,938.75
2017-06-03T05:07:49.516Z,938.75
2017-06-03T05:09:02.289Z,938.75
2017-06-03T05:10:15.063Z,938.73
2017-06-03T05:11:27.836Z,938.75
2017-06-03T05:12:40.812Z,938.71
2017-06-03T05:13:53.586Z,938.72
2017-06-03T05:15:06.366Z,938.71
2017-06-03T05:16:18.664Z,938.71
2017-06-03T05:17:31.445Z,938.67
2017-06-03T05:18:43.936Z,938.73
2017-06-03T05:19:56.709Z,938.69
2017-06-03T05:21:09.016Z,938.67
2017-06-03T05:22:21.795Z,938.72
2017-06-03T05:23:34.571Z,938.67
2017-06-03T05:24:47.345Z,938.65
2017-06-03T05:26:00.120Z,938.63
2017-06-03T05:27:12.947Z,938.62
2017-06-03T05:28:25.720Z,938.57
2017-06-03T05:29:38.692Z,938.57
2017-06-03T05:30:51.466Z,938.58
2017-06-03T05:32:04.241Z,938.57
2017-06-03T05:33:16.536Z,938.54
2017-06-03T05:34:28.828Z,938.5
2017-06-03T05:35:41.120Z,938.51
2017-06-03T05:36:53.893Z,938.51
2017-06-03T05:38:06.668Z,938.51
2017-06-03T05:39:18.959Z,938.51
2017-06-03T05:40:31.732Z,938.47
2017-06-03T05:41:44.533Z,938.44
2017-06-03T05:42:56.829Z,938.46
2017-06-03T05:44:09.602Z,938.42
2017-06-03T05:45:22.574Z,938.36
2017-06-03T05:46:35.351Z,938.38
2017-06-03T05:47:48.124Z,938.38
2017-06-03T05:49:00.439Z,938.4
2017-06-03T05:50:13.328Z,938.4
2017-06-03T05:51:25.930Z,938.4
2017-06-03T05:52:38.329Z,938.39
2017-06-03T05:53:50.735Z,938.38
2017-06-03T05:55:03.624Z,938.36
2017-06-03T05:56:16.528Z,938.39
2017-06-03T05:57:29.421Z,938.39
2017-06-03T05:58:42.313Z,938.35
2017-06-03T05:59:55.204Z,938.34
2017-06-03T06:01:08.302Z,938.34
2017-06-03T06:02:21.201Z,938.3
2017-06-03T06:03:33.115Z,938.33
2017-06-03T06:04:46.012Z,938.32
2017-06-03T06:05:58.909Z,938.3
2017-06-03T06:07:12.005Z,938.25
2017-06-03T06:08:24.405Z,938.25
2017-06-03T06:09:37.308Z,938.27
2017-06-03T06:10:50.202Z,938.23
2017-06-03T06:12:03.099Z,938.26
2017-06-03T06:13:15.997Z,938.25
2017-06-03T06:14:28.892Z,938.27
2017-06-03T06:15:41.788Z,938.25
2017-06-03T06:16:54.693Z,938.22
2017-06-03T06:18:07.297Z,938.27
2017-06-03T06:19:20.207Z,938.23
2017-06-03T06:20:32.631Z,938.25
2017-06-03T06:21:45.031Z,938.25
2017-06-03T06:22:57.931Z,938.24
2017-06-03T06:24:10.825Z,938.21
2017-06-03T06:25:23.714Z,938.21
2017-06-03T06:26:36.120Z,938.2
2017-06-03T06:27:49.019Z,938.19
2017-06-03T06:29:02.117Z,938.2
2017-06-03T06:30:15.013Z,938.17
2017-06-03T06:31:27.421Z,938.11
2017-06-03T06:32:40.316Z,938.07
2017-06-03T06:33:52.721Z,938.05
2017-06-03T06:35:05.611Z,938.03
2017-06-03T06:36:18.512Z,938.02
2017-06-03T06:37:31.407Z,938.04
2017-06-03T06:38:44.321Z,938.02
2017-06-03T06:39:57.413Z,938.04
2017-06-03T06:41:09.841Z,938.03
2017-06-03T06:42:22.242Z,938.02
2017-06-03T06:43:35.138Z,938
2017-06-03T06:44:48.063Z,938.01
2017-06-03T06:46:00.469Z,938.01
2017-06-03T06:47:13.402Z,937.98
2017-06-03T06:48:25.808Z,937.99
2017-06-03T06:49:38.214Z,937.99
2017-06-03T06:50:51.108Z,937.97
2017-06-03T06:52:03.999Z,937.97
2017-06-03T06:53:16.405Z,937.93
2017-06-03T06:54:29.295Z,937.94
2017-06-03T06:55:42.189Z,937.94
2017-06-03T06:56:55.083Z,937.96
2017-06-03T06:58:07.979Z,937.92
2017-06-03T06:59:20.865Z,937.95
2017-06-03T07:00:33.269Z,937.9
2017-06-03T07:01:46.364Z,937.91
2017-06-03T07:02:59.259Z,937.93
2017-06-03T07:04:12.149Z,937.95
2017-06-03T07:05:25.039Z,937.92
2017-06-03T07:06:37.930Z,937.85
2017-06-03T07:07:50.826Z,937.88
2017-06-03T07:09:03.713Z,937.91
2017-06-03T07:10:16.610Z,937.92
2017-06-03T07:11:29.506Z,937.9
2017-06-03T07:12:42.602Z,937.85
2017-06-03T07:13:55.009Z,937.89
2017-06-03T07:15:07.902Z,937.9
2017-06-03T07:16:20.794Z,937.88
2017-06-03T07:17:33.689Z,937.85
2017-06-03T07:18:46.782Z,937.83
2017-06-03T07:19:59.679Z,937.86
2017-06-03T07:21:12.571Z,937.82
2017-06-03T07:22:25.478Z,937.81
2017-06-03T07:23:38.575Z,937.83
2017-06-03T07:24:51.464Z,937.85
2017-06-03T07:26:04.357Z,937.83
2017-06-03T07:27:16.763Z,937.89
2017-06-03T07:28:29.653Z,937.91
2017-06-03T07:29:42.743Z,937.91
2017-06-03T07:30:55.147Z,937.88
2017-06-03T07:32:08.042Z,937.87
2017-06-03T07:33:20.955Z,937.87
2017-06-03T07:34:33.556Z,937.9
2017-06-03T07:35:46.452Z,937.88
2017-06-03T07:36:59.345Z,937.86
2017-06-03T07:38:11.781Z,937.86
2017-06-03T07:39:24.206Z,937.85
2017-06-03T07:40:36.621Z,937.86
2017-06-03T07:41:49.514Z,937.89
2017-06-03T07:43:02.402Z,937.86
2017-06-03T07:44:15.296Z,937.9
2017-06-03T07:45:27.902Z,937.85
2017-06-03T07:46:40.795Z,937.85
2017-06-03T07:47:53.689Z,937.89
2017-06-03T07:49:06.579Z,937.89
2017-06-03T07:50:19.491Z,937.91
2017-06-03T07:51:32.095Z,937.91
2017-06-03T07:52:44.502Z,937.92
2017-06-03T07:53:57.403Z,937.9
2017-06-03T07:55:10.297Z,937.92
2017-06-03T07:56:22.915Z,937.89
2017-06-03T07:57:35.319Z,937.9
2017-06-03T07:58:47.718Z,937.9
2017-06-03T08:00:00.618Z,937.9
2017-06-03T08:01:13.651Z,937.93
2017-06-03T08:02:26.388Z,937.96
2017-06-03T08:03:39.432Z,937.95
2017-06-03T08:04:52.467Z,938.01
2017-06-03T08:06:05.501Z,937.96
2017-06-03T08:07:18.558Z,938.01
2017-06-03T08:08:31.592Z,938.04
2017-06-03T08:09:44.660Z,938
2017-06-03T08:10:57.197Z,937.98
2017-06-03T08:12:10.233Z,938
2017-06-03T08:13:22.968Z,938.01
2017-06-03T08:14:36.002Z,937.99
2017-06-03T08:15:49.042Z,938.04
2017-06-03T08:17:02.078Z,938.04
2017-06-03T08:18:14.818Z,938.02
2017-06-03T08:19:27.354Z,938
2017-06-03T08:20:40.392Z,938
2017-06-03T08:21:53.431Z,937.98
2017-06-03T08:23:05.971Z,937.99
2017-06-03T08:24:18.704Z,937.97
2017-06-03T08:25:30.754Z,938
2017-06-03T08:26:43.789Z,937.98
2017-06-03T08:27:55.823Z,937.93
2017-06-03T08:29:08.869Z,937.91
2017-06-03T08:30:21.905Z,937.91
2017-06-03T08:31:34.439Z,937.92
2017-06-03T08:32:47.472Z,937.9
2017-06-03T08:34:00.507Z,937.89
2017-06-03T08:35:13.765Z,937.9
2017-06-03T08:36:26.245Z,937.92
2017-06-03T08:37:38.731Z,937.97
2017-06-03T08:38:51.707Z,937.94
2017-06-03T08:40:03.892Z,937.99
2017-06-03T08:41:16.871Z,937.92
2017-06-03T08:42:29.353Z,937.96
2017-06-03T08:43:41.832Z,937.94
2017-06-03T08:44:54.314Z,937.96
2017-06-03T08:46:07.291Z,937.97
2017-06-03T08:47:19.276Z,937.98
2017-06-03T08:48:31.762Z,937.99
2017-06-03T08:49:44.257Z,938
2017-06-03T08:50:57.251Z,937.99
2017-06-03T08:52:09.752Z,938
2017-06-03T08:53:22.752Z,938
2017-06-03T08:54:35.742Z,938
2017-06-03T08:55:48.734Z,938.02
2017-06-03T08:57:01.925Z,938.04
2017-06-03T08:58:14.919Z,938.06
2017-06-03T08:59:27.416Z,938.05
2017-06-03T09:00:40.406Z,938.06
2017-06-03T09:01:53.599Z,938.05
2017-06-03T09:03:05.598Z,938.1
2017-06-03T09:04:18.591Z,938.09
2017-06-03T09:05:31.084Z,938.08
2017-06-03T09:06:44.075Z,938.12
2017-06-03T09:07:56.569Z,938.14
2017-06-03T09:09:09.067Z,938.12
2017-06-03T09:10:22.060Z,938.12
2017-06-03T09:11:35.045Z,938.15
2017-06-03T09:12:47.955Z,938.18
2017-06-03T09:14:00.869Z,938.19
2017-06-03T09:15:13.783Z,938.21
2017-06-03T09:16:26.692Z,938.22
2017-06-03T09:17:39.607Z,938.22
2017-06-03T09:18:52.721Z,938.24
2017-06-03T09:20:04.658Z,938.24
2017-06-03T09:21:17.081Z,938.3
2017-06-03T09:22:29.510Z,938.29
2017-06-03T09:23:42.423Z,938.31
2017-06-03T09:24:55.335Z,938.31
2017-06-03T09:26:07.755Z,938.31
2017-06-03T09:27:20.668Z,938.32
2017-06-03T09:28:33.586Z,938.35
2017-06-03T09:29:46.501Z,938.32
2017-06-03T09:30:59.416Z,938.35
2017-06-03T09:32:12.332Z,938.37
2017-06-03T09:33:25.238Z,938.39
2017-06-03T09:34:38.329Z,938.37
2017-06-03T09:35:51.222Z,938.38
2017-06-03T09:37:04.143Z,938.38
2017-06-03T09:38:17.036Z,938.35
2017-06-03T09:39:29.436Z,938.38
2017-06-03T09:40:42.036Z,938.36
2017-06-03T09:41:54.928Z,938.4
2017-06-03T09:43:07.327Z,938.36
2017-06-03T09:44:19.727Z,938.37
2017-06-03T09:45:32.850Z,938.38
2017-06-03T09:46:45.742Z,938.36
2017-06-03T09:47:58.642Z,938.38
2017-06-03T09:49:11.535Z,938.35
2017-06-03T09:50:23.961Z,938.35
2017-06-03T09:51:37.061Z,938.37
2017-06-03T09:52:49.958Z,938.36
2017-06-03T09:54:02.362Z,938.33
2017-06-03T09:55:15.270Z,938.37
2017-06-03T09:56:28.161Z,938.34
2017-06-03T09:57:40.559Z,938.35
2017-06-03T09:58:52.966Z,938.41
2017-06-03T10:00:05.857Z,938.39
2017-06-03T10:01:18.755Z,938.45
2017-06-03T10:02:31.362Z,938.45
2017-06-03T10:03:44.257Z,938.43
2017-06-03T10:04:56.666Z,938.43
2017-06-03T10:06:09.564Z,938.47
2017-06-03T10:07:22.009Z,938.49
2017-06-03T10:08:34.413Z,938.5
2017-06-03T10:09:47.305Z,938.56
2017-06-03T10:10:59.710Z,938.54
2017-06-03T10:12:12.605Z,938.55
2017-06-03T10:13:25.010Z,938.53
2017-06-03T10:14:37.438Z,938.57
2017-06-03T10:15:50.333Z,938.58
2017-06-03T10:17:02.737Z,938.6
2017-06-03T10:18:15.839Z,938.58
2017-06-03T10:19:28.729Z,938.6
2017-06-03T10:20:41.132Z,938.62
2017-06-03T10:21:54.035Z,938.64
2017-06-03T10:23:06.925Z,938.69
2017-06-03T10:24:19.532Z,938.67
2017-06-03T10:25:32.454Z,938.71
2017-06-03T10:26:45.354Z,938.69
2017-06-03T10:27:58.250Z,938.7
2017-06-03T10:29:10.853Z,938.72
2017-06-03T10:30:23.252Z,938.7
2017-06-03T10:31:35.656Z,938.72
2017-06-03T10:32:48.552Z,938.74
2017-06-03T10:34:01.447Z,938.73
2017-06-03T10:35:14.050Z,938.74
2017-06-03T10:36:26.957Z,938.75
2017-06-03T10:37:39.847Z,938.74
2017-06-03T10:38:52.254Z,938.77
2017-06-03T10:40:04.663Z,938.77
2017-06-03T10:41:17.563Z,938.81
2017-06-03T10:42:30.453Z,938.8
2017-06-03T10:43:42.855Z,938.84
2017-06-03T10:44:55.746Z,938.83
2017-06-03T10:46:08.840Z,938.87
2017-06-03T10:47:21.251Z,938.89
2017-06-03T10:48:33.654Z,938.91
2017-06-03T10:49:46.542Z,938.9
2017-06-03T10:50:58.941Z,938.95
2017-06-03T10:52:11.847Z,938.91
2017-06-03T10:53:24.253Z,938.94
2017-06-03T10:54:36.660Z,938.91
2017-06-03T10:55:49.553Z,938.93
2017-06-03T10:57:01.674Z,938.95
2017-06-03T10:58:14.576Z,938.97
2017-06-03T10:59:27.469Z,939.02
2017-06-03T11:00:39.872Z,939.03
2017-06-03T11:01:52.280Z,939
2017-06-03T11:03:04.680Z,939.09
2017-06-03T11:04:16.980Z,939.01
2017-06-03T11:05:29.762Z,939.02
2017-06-03T11:06:42.536Z,938.98
2017-06-03T11:07:55.311Z,939.02
2017-06-03T11:09:07.604Z,939.01
2017-06-03T11:10:19.431Z,939.04
2017-06-03T11:11:32.211Z,939.04
2017-06-03T11:12:45.002Z,939.06
2017-06-03T11:13:57.777Z,939.04
2017-06-03T11:15:10.551Z,939.06
2017-06-03T11:16:23.333Z,939.01
2017-06-03T11:17:36.112Z,939.05
2017-06-03T11:18:49.089Z,939.01
2017-06-03T11:20:01.866Z,939.06
2017-06-03T11:21:14.641Z,939.04
2017-06-03T11:22:26.934Z,939.07
2017-06-03T11:23:39.229Z,939.07
2017-06-03T11:24:52.000Z,939.03
2017-06-03T11:26:04.799Z,939.09
2017-06-03T11:27:17.091Z,939.13
2017-06-03T11:28:28.904Z,939.12
2017-06-03T11:29:41.686Z,939.16
2017-06-03T11:30:54.466Z,939.2
2017-06-03T11:32:07.259Z,939.21
2017-06-03T11:33:19.552Z,939.23
2017-06-03T11:34:32.329Z,939.22
2017-06-03T11:35:45.189Z,939.19
2017-06-03T11:36:57.559Z,939.23
2017-06-03T11:38:10.416Z,939.23
2017-06-03T11:39:23.277Z,939.23
2017-06-03T11:40:35.847Z,939.24
2017-06-03T11:41:48.702Z,939.23
2017-06-03T11:43:01.076Z,939.25
2017-06-03T11:44:13.933Z,939.26
2017-06-03T11:45:26.796Z,939.29
2017-06-03T11:46:39.653Z,939.3
2017-06-03T11:47:52.514Z,939.33
2017-06-03T11:49:05.393Z,939.38
2017-06-03T11:50:17.894Z,939.32
2017-06-03T11:51:31.090Z,939.31
2017-06-03T11:52:43.588Z,939.34
2017-06-03T11:53:56.580Z,939.32
2017-06-03T11:55:09.572Z,939.27
2017-06-03T11:56:22.567Z,939.29
2017-06-03T11:57:35.561Z,939.29
2017-06-03T11:58:48.560Z,939.29
2017-06-03T12:00:01.554Z,939.26
2017-06-03T12:01:14.554Z,939.3
2017-06-03T12:02:27.748Z,939.19
2017-06-03T12:03:40.245Z,939.33
2017-06-03T12:04:53.236Z,939.33
2017-06-03T12:06:05.742Z,939.35
2017-06-03T12:07:18.246Z,939.4
2017-06-03T12:08:30.746Z,939.42
2017-06-03T12:09:43.737Z,939.43
2017-06-03T12:10:56.656Z,939.43
2017-06-03T12:12:09.571Z,939.42
2017-06-03T12:13:21.995Z,939.44
2017-06-03T12:14:34.919Z,939.42
2017-06-03T12:15:47.836Z,939.4
2017-06-03T12:17:00.760Z,939.42
2017-06-03T12:18:13.182Z,939.43
2017-06-03T12:19:26.096Z,939.36
2017-06-03T12:20:39.015Z,939.42
2017-06-03T12:21:51.929Z,939.42
2017-06-03T12:23:04.844Z,939.41
2017-06-03T12:24:17.268Z,939.39
2017-06-03T12:25:30.192Z,939.44
2017-06-03T12:26:43.107Z,939.38
2017-06-03T12:27:55.533Z,939.4
2017-06-03T12:29:08.649Z,939.31
2017-06-03T12:30:21.565Z,939.29
2017-06-03T12:31:34.484Z,939.33
2017-06-03T12:32:47.401Z,939.33
2017-06-03T12:33:59.828Z,939.3
2017-06-03T12:35:12.247Z,939.31
2017-06-03T12:36:25.150Z,939.29
2017-06-03T12:37:38.046Z,939.3
2017-06-03T12:38:50.948Z,939.26
2017-06-03T12:40:03.839Z,939.2
2017-06-03T12:41:16.243Z,939.27
2017-06-03T12:42:29.143Z,939.26
2017-06-03T12:43:42.042Z,939.28
2017-06-03T12:44:54.936Z,939.24
2017-06-03T12:46:07.368Z,939.25
2017-06-03T12:47:20.268Z,939.26
2017-06-03T12:48:32.677Z,939.25
2017-06-03T12:49:45.088Z,939.22
2017-06-03T12:50:58.186Z,939.23
2017-06-03T12:52:11.086Z,939.21
2017-06-03T12:53:23.507Z,939.18
2017-06-03T12:54:35.916Z,939.24
2017-06-03T12:55:48.813Z,939.24
2017-06-03T12:57:01.706Z,939.28
2017-06-03T12:58:14.605Z,939.22
2017-06-03T12:59:27.013Z,939.23
2017-06-03T13:00:39.912Z,939.23
2017-06-03T13:01:52.328Z,939.21
2017-06-03T13:03:04.735Z,939.21
2017-06-03T13:04:17.635Z,939.19
2017-06-03T13:05:30.530Z,939.17
2017-06-03T13:06:43.426Z,939.17
2017-06-03T13:07:55.344Z,939.2
2017-06-03T13:09:08.239Z,939.12
2017-06-03T13:10:20.642Z,939.16
2017-06-03T13:11:33.048Z,939.14
2017-06-03T13:12:45.705Z,939.13
2017-06-03T13:13:58.111Z,939.11
2017-06-03T13:15:11.035Z,939.14
2017-06-03T13:16:23.935Z,939.1
2017-06-03T13:17:36.830Z,939.13
2017-06-03T13:18:49.730Z,939.11
2017-06-03T13:20:02.184Z,939.11
2017-06-03T13:21:14.611Z,939.09
2017-06-03T13:22:27.040Z,939.09
2017-06-03T13:23:40.157Z,939.07
2017-06-03T13:24:52.581Z,939.09
2017-06-03T13:26:05.491Z,939.1
2017-06-03T13:27:18.413Z,939.02
2017-06-03T13:28:31.330Z,939.04
2017-06-03T13:29:44.251Z,939
2017-06-03T13:30:57.162Z,939.01
2017-06-03T13:32:10.079Z,939
2017-06-03T13:33:22.508Z,938.96
2017-06-03T13:34:35.624Z,938.99
2017-06-03T13:35:48.052Z,938.96
2017-06-03T13:37:00.971Z,938.97
2017-06-03T13:38:13.400Z,938.9
2017-06-03T13:39:26.320Z,938.97
2017-06-03T13:40:39.435Z,938.93
2017-06-03T13:41:52.363Z,938.91
2017-06-03T13:43:05.279Z,938.88
2017-06-03T13:44:17.705Z,938.89
2017-06-03T13:45:30.819Z,938.87
2017-06-03T13:46:43.734Z,938.91
2017-06-03T13:47:56.159Z,938.88
2017-06-03T13:49:09.075Z,938.89
2017-06-03T13:50:21.999Z,938.87
2017-06-03T13:51:34.633Z,938.85
2017-06-03T13:52:47.550Z,938.84
2017-06-03T13:53:59.971Z,938.82
2017-06-03T13:55:11.906Z,938.83
2017-06-03T13:56:24.328Z,938.8
2017-06-03T13:57:37.278Z,938.79
2017-06-03T13:58:50.192Z,938.77
2017-06-03T14:00:03.119Z,938.77
2017-06-03T14:01:16.041Z,938.7
2017-06-03T14:02:29.164Z,938.72
2017-06-03T14:03:41.574Z,938.69
2017-06-03T14:04:53.871Z,938.74
2017-06-03T14:06:06.172Z,938.66
2017-06-03T14:07:18.961Z,938.65
2017-06-03T14:08:31.743Z,938.68
2017-06-03T14:09:44.520Z,938.67
2017-06-03T14:10:57.331Z,938.63
2017-06-03T14:12:10.119Z,938.64
2017-06-03T14:13:22.141Z,938.62
2017-06-03T14:14:34.928Z,938.63
2017-06-03T14:15:47.711Z,938.62
2017-06-03T14:17:00.489Z,938.6
2017-06-03T14:18:12.817Z,938.57
2017-06-03T14:19:25.598Z,938.6
2017-06-03T14:20:37.897Z,938.53
2017-06-03T14:21:50.675Z,938.51
2017-06-03T14:23:02.492Z,938.53
2017-06-03T14:24:14.787Z,938.48
2017-06-03T14:25:27.562Z,938.47
2017-06-03T14:26:40.366Z,938.44
2017-06-03T14:27:53.154Z,938.44
2017-06-03T14:29:06.131Z,938.47
2017-06-03T14:30:18.909Z,938.45
2017-06-03T14:31:31.694Z,938.43
2017-06-03T14:32:44.473Z,938.38
2017-06-03T14:33:57.262Z,938.42
2017-06-03T14:35:10.381Z,938.36
2017-06-03T14:36:23.305Z,938.33
2017-06-03T14:37:35.747Z,938.33
2017-06-03T14:38:48.672Z,938.32
2017-06-03T14:40:01.592Z,938.29
2017-06-03T14:41:14.030Z,938.23
2017-06-03T14:42:26.951Z,938.27
2017-06-03T14:43:39.380Z,938.28
2017-06-03T14:44:52.300Z,938.26
2017-06-03T14:46:04.728Z,938.24
2017-06-03T14:47:17.648Z,938.23
2017-06-03T14:48:30.083Z,938.23
2017-06-03T14:49:42.522Z,938.22
2017-06-03T14:50:55.648Z,938.17
2017-06-03T14:52:07.587Z,938.19
2017-06-03T14:53:19.543Z,938.14
2017-06-03T14:54:32.477Z,938.14
2017-06-03T14:55:45.408Z,938.05
2017-06-03T14:56:58.333Z,938.05
2017-06-03T14:58:11.261Z,938.03
2017-06-03T14:59:23.696Z,938.05
2017-06-03T15:00:34.655Z,938.03
2017-06-03T15:01:46.794Z,938
2017-06-03T15:02:59.225Z,938
2017-06-03T15:04:11.655Z,937.96
2017-06-03T15:05:24.588Z,937.96
2017-06-03T15:06:37.511Z,937.96
2017-06-03T15:07:50.439Z,937.92
2017-06-03T15:09:02.386Z,937.94
2017-06-03T15:10:15.354Z,937.92
2017-06-03T15:11:28.283Z,937.9
2017-06-03T15:12:40.921Z,937.83